This is the latest recevied weather packets stored in our database for station/object WX5KDM. If no packets are shown the sender has not sent any weather packets the latest 10 day(s).
| Time | Temp. | Humidity | Pressure | Rain* | Wind** | Luminosity | Snow |
|---|---|---|---|---|---|---|---|
| 1778195888 | 20.56° C | 53% | 1016 hPa | 0 mm | - | - | - |
| 1778195584 | 20° C | 53% | 1015.8 hPa | 0 mm | - | - | - |
| 1778195280 | 20° C | 54% | 1015.8 hPa | 0 mm | - | - | - |
| 1778194979 | 20.56° C | 53% | 1015.8 hPa | 0 mm | - | - | - |
| 1778194678 | 20.56° C | 54% | 1015.9 hPa | 0 mm | - | - | - |
| 1778194374 | 20.56° C | 56% | 1015.9 hPa | 0 mm | - | - | - |
| 1778194070 | 20.56° C | 53% | 1015.9 hPa | 0 mm | - | - | - |
| 1778193768 | 21.11° C | 52% | 1015.7 hPa | 0 mm | - | - | - |
| 1778193463 | 20.56° C | 54% | 1015.7 hPa | 0 mm | - | - | - |
| 1778193160 | 20.56° C | 53% | 1015.8 hPa | 0 mm | - | - | - |
| 1778192857 | 20.56° C | 51% | 1015.6 hPa | 0 mm | - | - | - |
| 1778192553 | 20.56° C | 50% | 1015.8 hPa | 0 mm | - | - | - |
| 1778192250 | 20.56° C | 52% | 1015.7 hPa | 0 mm | - | - | - |
| 1778191946 | 21.67° C | 50% | 1015.6 hPa | 0 mm | - | - | - |
| 1778191643 | 21.11° C | 50% | 1015.5 hPa | 0 mm | - | - | - |
| 1778191341 | 21.11° C | 50% | 1015.6 hPa | 0 mm | - | - | - |
| 1778191037 | 21.11° C | 51% | 1015.7 hPa | 0 mm | - | - | - |
| 1778190735 | - | - | - | 0 mm | - | - | - |
| 1778190432 | 21.67° C | 48% | 1015.6 hPa | 0 mm | - | - | - |
| 1778190129 | 21.67° C | 48% | 1015.4 hPa | 0 mm | - | - | - |
| 1778189824 | 22.22° C | 44% | 1015.5 hPa | 0 mm | - | - | - |
| 1778189522 | 21.67° C | 46% | 1015.5 hPa | 0 mm | - | - | - |
| 1778189217 | 21.67° C | 48% | 1015.5 hPa | 0 mm | - | - | - |
| 1778188914 | 21.67° C | 47% | 1015.5 hPa | 0 mm | - | - | - |
| 1778188611 | 21.67° C | 48% | 1015.6 hPa | 0 mm | - | - | - |
* Rain latest hour (hover to see other rain measurements)
** Current wind speed in m/s (hover to see current wind gust speed)